Time;durP1;ratioP1;P1;durP2;ratioP2;P2;SDS_P1;SDS_P2;PMS_P1;PMS_P2;Temp;Humidity;BMP_temperature;BMP_pressure;BME280_temperature;BME280_humidity;BME280_pressure;Samples;Min_cycle;Max_cycle;Signal;HPM_P1;HPM_P2
2023/05/19 00:01:27;;;;;;;11.00;3.70;;;8.50;99.90;;;;;;5025479;28;20056;-77
2023/05/19 00:03:57;;;;;;;14.35;4.00;;;8.40;99.90;;;;;;5005379;28;20077;-77
2023/05/19 00:06:35;;;;;;;13.02;3.97;;;8.40;99.90;;;;;;5004798;28;20141;-77
2023/05/19 00:09:08;;;;;;;13.40;4.50;;;8.90;99.90;;;;;;5006798;28;20057;-77
2023/05/19 00:11:35;;;;;;;10.15;4.00;;;8.40;99.90;;;;;;4975361;28;20060;-75
2023/05/19 00:14:03;;;;;;;11.13;4.00;;;8.40;99.90;;;;;;4986110;28;20046;-77
2023/05/19 00:16:30;;;;;;;11.63;4.75;;;8.40;99.90;;;;;;4993075;28;20045;-77
2023/05/19 00:19:00;;;;;;;12.00;4.13;;;8.40;99.90;;;;;;4976727;28;20049;-77
2023/05/19 00:21:26;;;;;;;13.93;4.07;;;8.40;99.90;;;;;;5001717;28;20586;-77
2023/05/19 00:23:53;;;;;;;11.13;3.88;;;8.40;99.90;;;;;;5007546;28;20501;-77
2023/05/19 00:26:18;;;;;;;10.27;3.80;;;8.30;99.90;;;;;;4998970;28;20038;-76
2023/05/19 00:28:44;;;;;;;11.15;4.72;;;8.40;99.90;;;;;;5002485;28;20104;-76
2023/05/19 00:31:10;;;;;;;13.02;4.00;;;8.30;99.90;;;;;;5003374;28;20783;-77
2023/05/19 00:33:35;;;;;;;15.20;4.53;;;8.50;99.90;;;;;;4985080;28;20041;-77
2023/05/19 00:36:02;;;;;;;12.23;3.65;;;8.40;99.90;;;;;;4979758;28;20495;-76
2023/05/19 00:38:30;;;;;;;17.45;3.80;;;8.30;99.90;;;;;;4990039;28;20137;-77
2023/05/19 00:40:56;;;;;;;12.00;3.45;;;8.30;99.90;;;;;;4981903;28;20533;-76
2023/05/19 00:43:22;;;;;;;11.75;3.90;;;8.30;99.90;;;;;;4976569;28;20046;-77
2023/05/19 00:45:47;;;;;;;16.17;4.20;;;8.30;99.90;;;;;;4992455;28;20042;-76
2023/05/19 00:48:13;;;;;;;13.15;3.83;;;8.30;99.90;;;;;;5005387;28;20442;-77
2023/05/19 00:50:40;;;;;;;11.13;3.53;;;8.30;99.90;;;;;;5002300;28;20046;-77
2023/05/19 00:53:07;;;;;;;13.65;3.92;;;8.30;99.90;;;;;;4987510;28;20056;-76
2023/05/19 00:55:35;;;;;;;11.73;3.45;;;8.30;99.90;;;;;;4988251;28;20398;-77
2023/05/19 00:58:04;;;;;;;15.27;3.72;;;8.20;99.90;;;;;;4988401;28;20073;-76
2023/05/19 01:00:30;;;;;;;9.52;3.30;;;8.20;99.90;;;;;;5007519;28;20076;-77
2023/05/19 01:02:56;;;;;;;12.57;4.25;;;8.20;99.90;;;;;;5003390;28;20034;-77
2023/05/19 01:05:22;;;;;;;10.20;3.25;;;8.20;99.90;;;;;;4984965;28;20042;-77
2023/05/19 01:07:52;;;;;;;12.57;3.67;;;8.40;99.90;;;;;;4994192;28;20053;-77
2023/05/19 01:10:21;;;;;;;11.55;3.85;;;8.50;99.90;;;;;;4997347;28;20148;-77
2023/05/19 01:12:50;;;;;;;10.88;3.50;;;8.10;99.90;;;;;;4979999;28;20046;-76
2023/05/19 01:15:15;;;;;;;12.82;3.78;;;8.10;99.90;;;;;;4988068;28;20041;-76
2023/05/19 01:18:06;;;;;;;10.38;3.85;;;8.00;99.90;;;;;;5004146;28;20050;-76
2023/05/19 01:20:45;;;;;;;10.23;3.10;;;8.00;99.90;;;;;;5004041;28;20430;-77
2023/05/19 01:23:35;;;;;;;8.77;3.17;;;8.00;99.90;;;;;;5003250;28;20089;-77
2023/05/19 01:26:03;;;;;;;9.80;3.25;;;8.00;99.90;;;;;;5005102;28;20116;-77
2023/05/19 01:28:54;;;;;;;9.63;3.28;;;8.00;99.90;;;;;;4999089;28;20099;-77
2023/05/19 01:31:22;;;;;;;11.13;3.70;;;8.00;99.90;;;;;;5003339;28;20053;-77
2023/05/19 01:33:50;;;;;;;9.10;3.20;;;7.90;99.90;;;;;;4977881;28;20080;-76
2023/05/19 01:36:18;;;;;;;11.90;3.47;;;7.90;99.90;;;;;;5002696;28;20050;-77
2023/05/19 01:38:45;;;;;;;12.25;3.58;;;8.20;99.90;;;;;;4986827;28;20045;-77
2023/05/19 01:41:12;;;;;;;11.65;2.88;;;7.90;99.90;;;;;;5002385;28;20084;-77
2023/05/19 01:43:38;;;;;;;10.07;3.05;;;7.90;99.90;;;;;;4980380;28;20112;-76
2023/05/19 01:46:05;;;;;;;9.13;2.90;;;7.90;99.90;;;;;;4998347;28;20042;-77
2023/05/19 01:48:32;;;;;;;8.60;2.63;;;7.80;99.90;;;;;;4986095;28;20092;-77
2023/05/19 01:50:58;;;;;;;11.40;2.85;;;7.80;99.90;;;;;;4983012;28;20034;-78
2023/05/19 01:53:24;;;;;;;15.40;3.17;;;7.80;99.90;;;;;;5002425;28;20100;-80
2023/05/19 01:55:53;;;;;;;10.38;2.80;;;7.80;99.90;;;;;;5005370;28;20436;-80
2023/05/19 01:58:43;;;;;;;7.28;3.28;;;7.70;99.90;;;;;;5006048;28;20050;-79
2023/05/19 02:01:29;;;;;;;10.25;3.00;;;8.00;99.90;;;;;;5022051;28;20131;-80
2023/05/19 02:04:17;;;;;;;13.35;2.83;;;7.60;99.90;;;;;;4983009;28;20524;-80
2023/05/19 02:07:00;;;;;;;12.20;3.17;;;7.70;99.90;;;;;;5003153;28;20133;-80
2023/05/19 02:09:50;;;;;;;11.48;3.00;;;7.60;99.90;;;;;;5006057;28;20046;-80
2023/05/19 02:12:26;;;;;;;9.40;2.80;;;7.60;99.90;;;;;;5003061;28;20047;-80
2023/05/19 02:15:09;;;;;;;8.45;2.50;;;7.60;99.90;;;;;;4988622;28;20060;-80
2023/05/19 02:17:41;;;;;;;8.40;2.67;;;7.50;99.90;;;;;;4999767;28;20050;-80
2023/05/19 02:20:08;;;;;;;11.38;2.75;;;7.60;99.90;;;;;;5003546;28;20038;-79
2023/05/19 02:22:34;;;;;;;13.27;2.80;;;7.50;99.90;;;;;;5008904;28;20050;-79
2023/05/19 02:25:00;;;;;;;8.57;3.17;;;7.50;99.90;;;;;;5009695;28;20115;-80
2023/05/19 02:27:26;;;;;;;9.68;2.70;;;7.50;99.90;;;;;;5006651;28;20100;-79
2023/05/19 02:29:52;;;;;;;9.18;2.20;;;7.50;99.90;;;;;;5008988;28;20721;-79
2023/05/19 02:32:18;;;;;;;11.43;2.70;;;7.50;99.90;;;;;;5009134;28;20034;-79
2023/05/19 02:34:44;;;;;;;10.00;2.60;;;7.40;99.90;;;;;;5011511;28;20053;-79
2023/05/19 02:37:14;;;;;;;10.32;2.42;;;7.40;99.90;;;;;;5005847;28;20097;-80
2023/05/19 02:39:40;;;;;;;10.30;2.72;;;7.40;99.90;;;;;;5003733;28;20041;-80
2023/05/19 02:42:06;;;;;;;10.05;2.60;;;7.40;99.90;;;;;;4993629;28;20125;-79
2023/05/19 02:44:32;;;;;;;8.55;2.70;;;7.40;99.90;;;;;;5007911;28;20169;-80
2023/05/19 02:46:58;;;;;;;10.88;2.53;;;7.30;99.90;;;;;;5008534;28;20514;-80
2023/05/19 02:49:23;;;;;;;9.45;2.70;;;7.40;99.90;;;;;;5007822;28;20045;-80
2023/05/19 02:51:49;;;;;;;11.20;2.42;;;7.30;99.90;;;;;;5008797;28;20125;-80
2023/05/19 02:54:15;;;;;;;8.10;2.50;;;7.30;99.90;;;;;;5007879;28;20409;-80
2023/05/19 02:56:40;;;;;;;10.13;2.58;;;7.30;99.90;;;;;;5008832;28;20049;-80
2023/05/19 02:59:06;;;;;;;9.15;2.45;;;7.20;99.90;;;;;;4991780;28;20038;-80
2023/05/19 03:01:32;;;;;;;9.45;2.72;;;7.30;99.90;;;;;;5004833;28;20049;-81
2023/05/19 03:03:58;;;;;;;8.02;2.88;;;7.20;99.90;;;;;;5006747;28;20041;-80
2023/05/19 03:06:23;;;;;;;10.88;2.50;;;7.20;99.90;;;;;;5009201;28;20053;-80
2023/05/19 03:08:50;;;;;;;10.82;2.58;;;7.20;99.90;;;;;;4991599;28;20042;-80
2023/05/19 03:11:16;;;;;;;10.18;2.67;;;7.10;99.90;;;;;;5007497;28;20049;-80
2023/05/19 03:13:42;;;;;;;8.18;2.38;;;7.10;99.90;;;;;;5003571;28;20089;-80
2023/05/19 03:16:08;;;;;;;11.23;2.60;;;7.10;99.90;;;;;;5000851;28;20168;-81
2023/05/19 03:18:34;;;;;;;12.23;2.90;;;7.10;99.90;;;;;;5007500;28;20053;-80
2023/05/19 03:21:00;;;;;;;7.75;2.50;;;7.10;99.90;;;;;;5006886;28;20058;-80
2023/05/19 03:23:26;;;;;;;8.27;2.60;;;7.10;99.90;;;;;;5005234;28;20400;-80
2023/05/19 03:25:54;;;;;;;12.30;2.63;;;7.10;99.90;;;;;;5015389;28;20130;-80
2023/05/19 03:28:20;;;;;;;13.75;2.90;;;7.10;99.90;;;;;;5025513;28;20102;-81
2023/05/19 03:30:48;;;;;;;9.05;2.40;;;7.30;99.90;;;;;;4991434;28;20418;-80
2023/05/19 03:33:14;;;;;;;11.45;2.70;;;7.10;99.90;;;;;;5007031;28;20045;-80
2023/05/19 03:35:40;;;;;;;5.97;2.30;;;7.00;99.90;;;;;;5007122;28;20050;-80
2023/05/19 03:38:05;;;;;;;9.90;3.22;;;7.20;99.90;;;;;;5004770;28;20124;-80
2023/05/19 03:40:31;;;;;;;8.32;2.65;;;7.00;99.90;;;;;;5001279;28;20034;-80
2023/05/19 03:42:57;;;;;;;7.88;2.70;;;7.30;99.90;;;;;;5006836;28;20045;-80
2023/05/19 03:45:23;;;;;;;7.20;2.17;;;7.00;99.90;;;;;;5012747;28;20045;-80
2023/05/19 03:47:48;;;;;;;11.10;2.50;;;7.00;99.90;;;;;;5003729;28;20041;-79
2023/05/19 03:50:14;;;;;;;13.30;3.00;;;7.00;99.90;;;;;;4999658;28;20030;-80
2023/05/19 03:52:45;;;;;;;8.45;2.33;;;6.80;99.90;;;;;;5013891;28;20042;-80
2023/05/19 03:55:11;;;;;;;11.38;2.88;;;6.90;99.90;;;;;;4992696;28;20046;-80
2023/05/19 03:57:37;;;;;;;6.90;2.08;;;6.90;99.90;;;;;;5007236;28;20443;-79
2023/05/19 04:00:04;;;;;;;8.55;3.10;;;7.00;99.90;;;;;;5008103;28;20045;-80
2023/05/19 04:02:30;;;;;;;7.93;2.90;;;7.00;99.90;;;;;;4990571;28;20069;-80
2023/05/19 04:04:56;;;;;;;8.88;3.45;;;7.00;99.90;;;;;;5007168;28;20042;-80
2023/05/19 04:07:22;;;;;;;10.80;2.85;;;7.00;99.90;;;;;;4984658;28;20050;-80
2023/05/19 04:09:49;;;;;;;9.98;2.80;;;7.00;99.90;;;;;;5000244;28;20045;-80
2023/05/19 04:12:14;;;;;;;9.10;2.65;;;7.00;99.90;;;;;;4999934;28;20260;-80
2023/05/19 04:14:40;;;;;;;9.02;3.15;;;7.00;99.90;;;;;;5006963;28;20141;-80
2023/05/19 04:17:06;;;;;;;8.65;2.70;;;7.00;99.90;;;;;;5003160;28;20046;-78
2023/05/19 04:19:32;;;;;;;8.75;2.85;;;7.00;99.90;;;;;;4993694;28;20046;-80
2023/05/19 04:21:57;;;;;;;6.43;2.60;;;7.40;99.90;;;;;;5009703;28;20060;-80
2023/05/19 04:24:23;;;;;;;7.57;2.83;;;7.10;99.90;;;;;;5009271;28;20052;-81
2023/05/19 04:26:49;;;;;;;7.05;2.92;;;7.10;99.90;;;;;;4991063;28;20038;-81
2023/05/19 04:29:16;;;;;;;7.03;2.25;;;7.30;99.90;;;;;;4993411;28;20069;-81
2023/05/19 04:31:48;;;;;;;7.10;2.80;;;7.10;99.90;;;;;;4994105;28;20046;-81
2023/05/19 04:34:14;;;;;;;9.70;2.90;;;7.60;99.90;;;;;;4987691;28;20474;-81
2023/05/19 04:36:40;;;;;;;10.82;3.03;;;7.40;99.90;;;;;;4996533;28;20053;-81
2023/05/19 04:39:08;;;;;;;6.53;2.58;;;7.60;99.90;;;;;;4990092;28;20402;-80
2023/05/19 04:41:34;;;;;;;12.07;2.72;;;7.80;99.90;;;;;;4989356;28;20522;-81
2023/05/19 04:44:00;;;;;;;9.95;2.63;;;8.10;99.90;;;;;;4997762;28;20049;-81
2023/05/19 04:46:25;;;;;;;9.70;2.60;;;8.30;99.90;;;;;;5002481;28;20048;-80
2023/05/19 04:48:54;;;;;;;10.38;2.35;;;8.60;99.90;;;;;;4988401;28;20037;-80
2023/05/19 04:51:19;;;;;;;10.13;2.63;;;8.80;99.90;;;;;;5003121;28;20042;-80
2023/05/19 04:53:45;;;;;;;9.35;2.53;;;9.00;99.90;;;;;;4986286;28;20776;-80
2023/05/19 04:56:13;;;;;;;12.57;3.10;;;9.20;99.90;;;;;;4990622;28;20120;-80
2023/05/19 04:58:40;;;;;;;7.10;2.55;;;9.50;99.90;;;;;;5003932;28;20049;-80
2023/05/19 05:01:08;;;;;;;9.70;2.40;;;9.70;99.90;;;;;;4998254;28;20737;-80
2023/05/19 05:03:34;;;;;;;9.35;2.15;;;10.00;99.90;;;;;;5004000;28;20057;-80
2023/05/19 05:06:00;;;;;;;9.20;2.40;;;10.30;99.90;;;;;;5004273;28;20041;-80
2023/05/19 05:08:26;;;;;;;7.95;2.08;;;10.50;99.90;;;;;;5000091;28;20061;-80
2023/05/19 05:10:52;;;;;;;10.55;2.75;;;10.70;99.90;;;;;;5001118;28;20045;-80
2023/05/19 05:13:21;;;;;;;11.93;2.95;;;11.00;99.90;;;;;;4984046;28;20041;-80
2023/05/19 05:15:48;;;;;;;6.85;2.13;;;11.20;99.90;;;;;;5005093;28;20042;-80
2023/05/19 05:18:14;;;;;;;11.27;3.00;;;11.40;99.90;;;;;;5002581;28;20573;-80
2023/05/19 05:20:43;;;;;;;11.80;3.05;;;11.60;99.90;;;;;;5016041;28;20049;-80
2023/05/19 05:23:13;;;;;;;11.15;2.92;;;11.70;99.90;;;;;;5004856;28;20057;-80
2023/05/19 05:25:42;;;;;;;10.02;2.60;;;11.70;99.90;;;;;;4977843;28;20050;-81
2023/05/19 05:28:08;;;;;;;19.10;3.88;;;11.60;99.90;;;;;;4998871;28;20072;-81
2023/05/19 05:30:34;;;;;;;11.23;3.03;;;11.50;99.90;;;;;;4985541;28;20698;-81
2023/05/19 05:33:00;;;;;;;9.43;3.53;;;11.30;99.90;;;;;;5001446;28;20053;-80
2023/05/19 05:35:26;;;;;;;14.63;3.85;;;11.20;99.90;;;;;;5001001;28;20050;-81
2023/05/19 05:37:52;;;;;;;10.23;3.03;;;11.10;99.90;;;;;;5014118;28;20038;-80
2023/05/19 05:40:18;;;;;;;13.50;3.65;;;11.00;99.90;;;;;;4999618;28;20039;-79
2023/05/19 05:42:44;;;;;;;11.73;3.25;;;10.90;99.90;;;;;;5003008;28;20052;-80
2023/05/19 05:45:10;;;;;;;11.70;3.78;;;10.90;99.90;;;;;;5000817;28;20847;-80
2023/05/19 05:47:37;;;;;;;12.52;3.92;;;10.80;99.90;;;;;;5002196;28;20765;-80
2023/05/19 05:50:07;;;;;;;12.23;4.07;;;10.80;99.90;;;;;;4989864;28;20057;-80
2023/05/19 05:52:36;;;;;;;13.83;4.13;;;10.70;99.90;;;;;;5010065;28;20446;-79
2023/05/19 05:55:02;;;;;;;18.20;4.00;;;10.80;99.90;;;;;;5011072;28;20704;-80
2023/05/19 05:57:29;;;;;;;11.90;4.15;;;10.80;99.90;;;;;;5015667;28;20132;-81
2023/05/19 05:59:55;;;;;;;14.38;4.25;;;10.90;99.90;;;;;;4999805;28;20038;-79
2023/05/19 06:02:21;;;;;;;13.02;4.13;;;11.00;99.90;;;;;;5004724;28;20462;-80
2023/05/19 06:04:47;;;;;;;13.90;3.97;;;11.00;99.90;;;;;;5004266;28;20103;-80
2023/05/19 06:07:13;;;;;;;14.93;5.25;;;11.00;99.90;;;;;;4990814;28;20390;-80
2023/05/19 06:09:38;;;;;;;11.02;3.50;;;11.00;99.90;;;;;;5006013;28;20046;-80
2023/05/19 06:12:05;;;;;;;13.15;4.45;;;11.00;99.90;;;;;;5009085;28;20034;-80
2023/05/19 06:14:31;;;;;;;13.90;4.40;;;11.00;99.90;;;;;;5001833;28;20402;-81
2023/05/19 06:16:57;;;;;;;10.50;3.85;;;11.00;99.90;;;;;;5009684;28;20077;-79
2023/05/19 06:19:24;;;;;;;15.68;4.95;;;11.00;99.90;;;;;;5008942;28;20505;-79
2023/05/19 06:21:50;;;;;;;11.15;3.80;;;11.00;99.90;;;;;;5003756;28;20045;-80
2023/05/19 06:24:16;;;;;;;10.77;4.03;;;11.00;99.90;;;;;;5007101;28;20041;-78
2023/05/19 06:26:42;;;;;;;11.65;4.22;;;11.10;99.90;;;;;;5007997;28;20508;-79
2023/05/19 06:29:08;;;;;;;10.60;3.72;;;11.10;99.90;;;;;;4991516;28;20522;-79
2023/05/19 06:31:33;;;;;;;12.68;4.65;;;11.20;99.90;;;;;;5008258;28;20394;-79
2023/05/19 06:33:59;;;;;;;12.68;3.60;;;11.20;99.90;;;;;;5006336;28;20053;-78
2023/05/19 06:36:25;;;;;;;15.18;4.35;;;11.20;99.90;;;;;;5008325;28;20593;-78
2023/05/19 06:38:51;;;;;;;12.82;3.78;;;11.20;99.90;;;;;;5000396;28;20050;-78
2023/05/19 06:41:20;;;;;;;11.02;3.50;;;11.30;99.90;;;;;;4995496;28;20050;-78
2023/05/19 06:43:46;;;;;;;14.65;3.83;;;11.30;99.90;;;;;;5004412;28;20045;-78
2023/05/19 06:46:12;;;;;;;11.95;3.58;;;11.40;99.90;;;;;;5006055;28;20046;-78
2023/05/19 06:48:38;;;;;;;15.13;4.32;;;11.40;99.90;;;;;;5003907;28;20588;-78
2023/05/19 06:51:04;;;;;;;11.20;3.60;;;11.40;99.90;;;;;;5006903;28;20129;-78
2023/05/19 06:53:30;;;;;;;12.68;3.70;;;11.40;99.90;;;;;;4987964;28;20056;-78
2023/05/19 06:55:56;;;;;;;12.10;4.15;;;11.50;99.90;;;;;;5024390;28;20124;-79
2023/05/19 06:58:22;;;;;;;15.43;3.67;;;11.50;99.90;;;;;;5007879;28;20140;-77
2023/05/19 07:00:47;;;;;;;11.95;3.40;;;11.60;99.90;;;;;;4995563;28;20052;-79
2023/05/19 07:03:13;;;;;;;10.52;3.28;;;11.60;99.90;;;;;;5001016;28;20525;-80
2023/05/19 07:05:39;;;;;;;12.68;3.22;;;11.60;99.90;;;;;;5004114;28;20049;-80
2023/05/19 07:08:05;;;;;;;11.20;3.42;;;11.70;99.90;;;;;;5003163;28;20034;-77
2023/05/19 07:10:33;;;;;;;16.15;4.40;;;11.70;99.90;;;;;;4999753;28;20598;-77
2023/05/19 07:12:59;;;;;;;13.65;3.47;;;11.80;99.90;;;;;;5000444;28;20148;-77
2023/05/19 07:15:28;;;;;;;10.70;3.17;;;11.90;99.90;;;;;;5003106;28;20121;-77
2023/05/19 07:17:53;;;;;;;13.52;3.38;;;12.00;99.90;;;;;;5003602;28;20388;-77
2023/05/19 07:20:19;;;;;;;12.23;3.13;;;12.00;99.90;;;;;;4996801;28;20049;-76
2023/05/19 07:22:45;;;;;;;11.02;3.20;;;12.10;99.90;;;;;;4997947;28;21204;-77
2023/05/19 07:25:11;;;;;;;10.30;2.92;;;12.20;99.90;;;;;;5004315;28;20535;-76
2023/05/19 07:27:36;;;;;;;12.45;3.13;;;12.40;99.90;;;;;;5003793;28;20050;-76
2023/05/19 07:30:03;;;;;;;9.48;3.08;;;12.50;99.90;;;;;;4986412;28;20073;-78
2023/05/19 07:32:28;;;;;;;9.57;3.13;;;12.70;99.90;;;;;;5007619;28;20533;-77
2023/05/19 07:34:54;;;;;;;9.15;2.80;;;12.80;99.90;;;;;;5001035;28;20054;-77
2023/05/19 07:37:20;;;;;;;8.90;2.90;;;12.90;99.90;;;;;;5002182;28;20088;-77
2023/05/19 07:39:46;;;;;;;11.73;2.85;;;13.10;99.90;;;;;;4986475;28;20132;-77
2023/05/19 07:42:11;;;;;;;10.27;2.72;;;13.20;99.90;;;;;;4981770;28;20042;-78
2023/05/19 07:44:37;;;;;;;12.30;2.88;;;13.30;99.90;;;;;;4999843;28;20060;-76
2023/05/19 07:47:03;;;;;;;9.88;2.50;;;13.40;99.90;;;;;;4985909;28;20041;-77
2023/05/19 07:49:28;;;;;;;11.07;2.92;;;13.50;99.90;;;;;;5019270;28;20513;-77
2023/05/19 07:51:54;;;;;;;7.60;2.47;;;13.60;99.90;;;;;;5001103;28;20045;-77
2023/05/19 07:54:20;;;;;;;14.80;2.42;;;13.70;99.90;;;;;;5005824;28;20100;-77
2023/05/19 07:56:47;;;;;;;8.05;2.38;;;13.80;99.90;;;;;;5003694;28;20510;-77
2023/05/19 07:59:13;;;;;;;7.70;2.63;;;13.90;99.90;;;;;;5011354;28;20148;-77
2023/05/19 08:01:39;;;;;;;12.07;2.72;;;14.00;99.90;;;;;;5001287;28;20096;-77
2023/05/19 08:04:05;;;;;;;11.05;2.65;;;14.00;99.90;;;;;;4984657;28;20042;-77
2023/05/19 08:06:31;;;;;;;11.73;2.55;;;14.10;99.90;;;;;;5002806;28;20073;-77
2023/05/19 08:08:57;;;;;;;8.25;2.38;;;14.20;99.90;;;;;;4980872;28;20049;-77
2023/05/19 08:11:22;;;;;;;8.07;2.42;;;14.30;99.90;;;;;;4997681;28;20041;-77
2023/05/19 08:13:48;;;;;;;11.80;2.35;;;14.40;99.90;;;;;;5000109;28;20049;-77
2023/05/19 08:16:15;;;;;;;12.90;2.72;;;14.50;99.90;;;;;;5001420;28;20038;-78
2023/05/19 08:18:40;;;;;;;8.57;2.92;;;14.50;99.90;;;;;;5016717;28;20049;-77
2023/05/19 08:21:06;;;;;;;12.35;2.67;;;14.40;99.90;;;;;;5004475;28;20792;-76
2023/05/19 08:23:33;;;;;;;9.68;2.20;;;14.60;99.90;;;;;;4987421;28;20449;-78
2023/05/19 08:25:58;;;;;;;9.60;2.80;;;14.80;99.90;;;;;;5005365;28;21448;-77
2023/05/19 08:28:24;;;;;;;10.20;2.50;;;14.90;99.90;;;;;;5003749;28;20053;-78
2023/05/19 08:30:53;;;;;;;11.93;2.50;;;15.00;99.90;;;;;;4986327;28;20042;-78
2023/05/19 08:33:20;;;;;;;10.30;2.70;;;15.20;99.90;;;;;;5004682;28;20050;-78
2023/05/19 08:35:46;;;;;;;10.48;2.30;;;15.20;99.90;;;;;;4981411;28;20128;-78
2023/05/19 08:38:12;;;;;;;11.98;3.28;;;15.20;99.90;;;;;;4998852;28;20042;-77
2023/05/19 08:40:41;;;;;;;10.60;2.35;;;15.20;99.90;;;;;;4992839;28;20053;-78
2023/05/19 08:43:07;;;;;;;9.82;2.85;;;15.30;99.90;;;;;;4999399;28;21010;-80
2023/05/19 08:45:33;;;;;;;7.10;2.35;;;15.40;99.90;;;;;;4993910;28;20050;-79
2023/05/19 08:47:59;;;;;;;8.02;3.00;;;15.40;99.90;;;;;;4996520;28;20127;-78
2023/05/19 08:50:29;;;;;;;8.55;2.80;;;15.50;99.90;;;;;;4998805;28;20045;-79
2023/05/19 08:53:06;;;;;;;11.52;2.92;;;15.50;99.90;;;;;;4998873;28;20045;-79
2023/05/19 08:55:41;;;;;;;8.75;2.70;;;15.60;99.90;;;;;;5002463;28;20397;-79
2023/05/19 08:58:07;;;;;;;8.52;2.70;;;15.60;99.90;;;;;;4999195;28;20427;-79
2023/05/19 09:00:33;;;;;;;8.15;2.78;;;15.70;99.90;;;;;;4982492;28;20459;-79
2023/05/19 09:03:02;;;;;;;12.50;3.08;;;15.80;99.90;;;;;;4998845;28;20052;-76
2023/05/19 09:05:28;;;;;;;6.43;2.50;;;15.80;99.90;;;;;;5010390;28;20053;-81
2023/05/19 09:07:54;;;;;;;10.05;3.33;;;15.90;99.90;;;;;;5009957;28;20122;-79
2023/05/19 09:10:19;;;;;;;14.13;2.85;;;15.80;99.90;;;;;;5003399;28;20121;-78
2023/05/19 09:12:46;;;;;;;9.65;2.80;;;15.80;99.90;;;;;;5002637;28;20283;-80
2023/05/19 09:15:20;;;;;;;10.60;3.28;;;15.80;99.90;;;;;;4987842;28;20050;-77
2023/05/19 09:17:49;;;;;;;8.75;3.05;;;15.80;99.90;;;;;;5016040;28;20079;-80
2023/05/19 09:20:16;;;;;;;8.75;2.97;;;15.80;99.90;;;;;;5006620;28;20085;-79
2023/05/19 09:22:46;;;;;;;10.68;2.78;;;15.80;99.90;;;;;;5005659;28;20141;-80
2023/05/19 09:25:22;;;;;;;14.82;2.85;;;15.90;99.90;;;;;;4990511;28;20049;-78
2023/05/19 09:27:48;;;;;;;9.75;3.17;;;15.90;99.90;;;;;;5004234;28;20392;-78
2023/05/19 09:30:16;;;;;;;10.27;2.83;;;15.90;99.90;;;;;;4999230;28;20050;-76
2023/05/19 09:32:43;;;;;;;14.25;3.20;;;15.90;99.90;;;;;;4998537;28;20133;-79
2023/05/19 09:35:18;;;;;;;12.23;3.45;;;15.90;99.90;;;;;;4996562;28;20042;-82
2023/05/19 09:37:45;;;;;;;8.15;2.78;;;15.90;99.90;;;;;;4979686;28;20058;-80
2023/05/19 09:40:13;;;;;;;10.85;3.05;;;15.90;99.90;;;;;;4992392;28;20038;-79
2023/05/19 09:42:40;;;;;;;13.88;3.22;;;15.90;99.90;;;;;;4996203;28;20600;-79
2023/05/19 09:45:10;;;;;;;9.60;2.45;;;15.90;99.90;;;;;;4991244;28;20289;-79
2023/05/19 09:47:40;;;;;;;7.93;3.10;;;16.00;99.90;;;;;;4990918;28;20057;-81
2023/05/19 09:50:11;;;;;;;10.70;3.00;;;16.00;99.90;;;;;;4991996;28;20119;-79
2023/05/19 09:52:42;;;;;;;10.80;2.88;;;16.10;99.90;;;;;;4982715;28;20394;-78
2023/05/19 09:55:10;;;;;;;11.50;3.08;;;16.10;99.90;;;;;;4995929;28;20058;-80
2023/05/19 09:57:36;;;;;;;14.02;3.25;;;16.10;99.90;;;;;;4996519;28;20057;-83
2023/05/19 10:00:18;;;;;;;10.77;2.95;;;16.10;99.90;;;;;;4992734;28;20049;-80
2023/05/19 10:02:46;;;;;;;10.48;3.00;;;16.20;99.90;;;;;;4997846;28;20053;-79
2023/05/19 10:05:18;;;;;;;7.20;2.50;;;16.20;99.90;;;;;;4995167;28;20041;-76
2023/05/19 10:07:53;;;;;;;8.63;2.20;;;16.20;99.90;;;;;;4992943;28;20066;-81
2023/05/19 10:10:20;;;;;;;8.02;3.03;;;16.20;99.90;;;;;;4996456;28;20513;-80
2023/05/19 10:12:49;;;;;;;8.80;2.65;;;16.20;99.90;;;;;;4997061;28;20072;-80
2023/05/19 10:15:16;;;;;;;9.65;2.78;;;16.30;99.90;;;;;;4979733;28;20121;-80
2023/05/19 10:17:44;;;;;;;11.13;2.95;;;16.30;99.90;;;;;;4995865;28;20057;-80
2023/05/19 10:20:14;;;;;;;7.65;2.53;;;16.40;99.90;;;;;;4995359;28;20046;-80
2023/05/19 10:22:42;;;;;;;7.55;2.30;;;16.40;99.90;;;;;;4998837;28;20545;-79
2023/05/19 10:25:09;;;;;;;8.38;2.30;;;16.50;99.50;;;;;;4992875;28;20058;-81
2023/05/19 10:27:53;;;;;;;11.13;2.60;;;16.50;99.90;;;;;;4997981;28;20129;-78
2023/05/19 10:30:32;;;;;;;8.80;2.42;;;16.50;99.20;;;;;;4983023;28;20050;-77
2023/05/19 10:33:00;;;;;;;8.85;2.30;;;16.40;98.80;;;;;;4980140;28;20050;-81
2023/05/19 10:35:39;;;;;;;8.57;2.35;;;16.40;99.70;;;;;;5005664;28;20084;-80
2023/05/19 10:38:21;;;;;;;7.57;2.42;;;16.30;99.30;;;;;;4999282;28;20076;-79
2023/05/19 10:40:50;;;;;;;8.90;2.70;;;16.30;98.40;;;;;;5002074;28;20516;-81
2023/05/19 10:43:39;;;;;;;8.65;2.40;;;16.30;98.80;;;;;;5003059;28;20053;-80
2023/05/19 10:46:07;;;;;;;12.23;2.53;;;16.30;99.60;;;;;;5001393;28;20841;-82
2023/05/19 10:48:35;;;;;;;9.23;2.28;;;16.40;99.00;;;;;;5001132;28;20046;-77
2023/05/19 10:51:01;;;;;;;7.40;2.10;;;16.30;98.80;;;;;;5000005;28;20077;-81
2023/05/19 10:53:32;;;;;;;9.55;2.67;;;16.40;99.10;;;;;;5002132;28;20044;-80
2023/05/19 10:56:03;;;;;;;7.43;2.33;;;16.40;98.20;;;;;;4985996;28;20380;-79
2023/05/19 10:58:47;;;;;;;8.52;2.30;;;16.50;98.90;;;;;;4987966;28;20046;-80
2023/05/19 11:01:23;;;;;;;11.15;2.70;;;16.60;97.30;;;;;;4994802;28;20050;-80
2023/05/19 11:03:53;;;;;;;8.23;2.60;;;16.60;98.00;;;;;;5001867;28;20057;-79
2023/05/19 11:06:29;;;;;;;7.83;2.80;;;16.70;98.40;;;;;;5000506;28;20037;-80
2023/05/19 11:09:17;;;;;;;9.25;2.65;;;16.70;98.60;;;;;;4999464;28;20093;-77
2023/05/19 11:11:52;;;;;;;6.88;1.98;;;16.90;97.40;;;;;;5023844;28;20164;-80
2023/05/19 11:14:27;;;;;;;7.22;2.30;;;16.90;98.40;;;;;;4997968;28;20038;-80
2023/05/19 11:16:58;;;;;;;7.43;2.42;;;16.90;97.00;;;;;;5006293;28;20565;-78
2023/05/19 11:19:27;;;;;;;7.78;1.98;;;17.00;96.90;;;;;;5006450;28;20092;-78
2023/05/19 11:21:54;;;;;;;7.80;1.83;;;17.00;97.20;;;;;;5001571;28;20066;-81
2023/05/19 11:24:43;;;;;;;5.38;1.90;;;17.10;97.00;;;;;;4990938;28;20048;-78
2023/05/19 11:27:19;;;;;;;9.93;2.20;;;17.20;94.50;;;;;;5014922;28;20104;-81
2023/05/19 11:29:47;;;;;;;8.48;2.28;;;17.30;95.30;;;;;;4983128;28;20077;-81
2023/05/19 11:32:14;;;;;;;8.85;2.60;;;17.30;95.50;;;;;;4983024;28;20484;-77
2023/05/19 11:34:40;;;;;;;9.15;2.65;;;17.30;95.40;;;;;;4981008;28;20045;-78
2023/05/19 11:37:07;;;;;;;9.68;2.53;;;17.30;94.50;;;;;;5000439;28;20057;-80
2023/05/19 11:39:33;;;;;;;9.40;2.47;;;17.30;95.50;;;;;;5001938;28;20038;-79
2023/05/19 11:41:59;;;;;;;7.65;2.17;;;17.20;96.00;;;;;;4977405;28;21110;-79
2023/05/19 11:44:28;;;;;;;6.75;2.00;;;17.30;95.80;;;;;;4987072;28;20037;-81
2023/05/19 11:46:54;;;;;;;8.60;2.20;;;17.30;94.00;;;;;;5006064;28;20038;-80
2023/05/19 11:49:20;;;;;;;8.30;2.20;;;17.40;95.10;;;;;;4999234;28;20046;-81
2023/05/19 11:51:45;;;;;;;10.23;2.22;;;17.40;93.80;;;;;;5006693;28;20414;-80
2023/05/19 11:54:12;;;;;;;10.73;2.55;;;17.50;94.60;;;;;;4992639;28;20064;-81
2023/05/19 11:56:41;;;;;;;7.28;2.60;;;17.50;95.50;;;;;;5003811;28;20225;-78
2023/05/19 11:59:10;;;;;;;9.55;2.50;;;17.50;94.30;;;;;;5000582;28;20165;-82
2023/05/19 12:01:36;;;;;;;10.23;2.38;;;17.40;93.20;;;;;;5001280;28;20034;-83
2023/05/19 12:04:07;;;;;;;7.57;2.22;;;17.40;93.90;;;;;;5005961;28;20034;-80
2023/05/19 12:06:33;;;;;;;10.90;2.65;;;17.40;94.50;;;;;;5000541;28;20069;-81
2023/05/19 12:08:59;;;;;;;10.85;3.10;;;17.40;94.10;;;;;;4982328;28;21930;-75
2023/05/19 12:11:27;;;;;;;8.32;2.60;;;17.50;94.70;;;;;;4997181;28;20041;-76
2023/05/19 12:13:57;;;;;;;8.15;2.33;;;17.50;94.90;;;;;;4981882;28;20698;-78
2023/05/19 12:16:35;;;;;;;11.65;3.08;;;17.60;95.20;;;;;;4991595;28;20146;-76
2023/05/19 12:19:04;;;;;;;8.68;2.13;;;17.60;94.50;;;;;;4991265;28;20709;-77
2023/05/19 12:21:31;;;;;;;9.57;2.67;;;17.60;95.00;;;;;;4975900;28;20090;-73
2023/05/19 12:23:58;;;;;;;6.75;2.40;;;17.60;95.10;;;;;;4976359;28;20081;-76
2023/05/19 12:26:27;;;;;;;9.65;2.33;;;17.70;95.40;;;;;;4998540;28;20042;-77
2023/05/19 12:28:57;;;;;;;8.18;2.35;;;17.70;95.20;;;;;;5001987;28;20045;-77
2023/05/19 12:31:24;;;;;;;9.03;2.27;;;17.80;95.20;;;;;;4987495;28;20084;-79
2023/05/19 12:33:51;;;;;;;6.57;2.30;;;17.80;94.40;;;;;;4984577;28;20870;-78
2023/05/19 12:36:24;;;;;;;10.45;2.65;;;17.80;93.90;;;;;;4989254;28;20050;-78
2023/05/19 12:38:54;;;;;;;6.88;2.45;;;17.70;93.90;;;;;;4996028;28;20069;-76
2023/05/19 12:41:31;;;;;;;8.73;2.22;;;17.70;94.40;;;;;;4997040;28;20046;-77
2023/05/19 12:44:03;;;;;;;7.68;2.60;;;17.80;94.80;;;;;;4984513;28;20458;-77
2023/05/19 12:46:32;;;;;;;8.63;2.50;;;17.80;94.30;;;;;;4987819;28;20034;-77
2023/05/19 12:48:59;;;;;;;10.55;2.65;;;17.80;94.50;;;;;;4987040;28;20104;-81
2023/05/19 12:51:28;;;;;;;10.43;2.42;;;17.80;93.30;;;;;;4992502;28;20794;-80